Mc Daniels, Kentucky
Current Conditions -  °F | °C
As of 10:58 AM on Wednesday 26 Nov 2014 (Local Time) from KFTK Reporting Station
Few Clouds Few Clouds  
Wind Chill: 38°   Ceiling: Unl
Heat Index: 38°   Visibility: 10mi
Dew Point: 29°   Wind: 2mph
Humidity: 71%   Direction: 140°SE
Pressure: 30.09"   Gusts: NA
Location:  37.6134°N, 86.4706°W
Report Text: KFTK 261658Z AUTO 14002KT 10SM FEW160 03/M01 A3009 RMK AO2 SLP199 T00331015
Loading
Personal Weather Stations






























Interactive Weather Map New forecast layout! Learn more

10-Day Weather Forecast

Advertisements
Track Severe Weather on mobile